Terminal Aerodrome Forecast
Issued by NWS Charleston, SC

Home | Current Version | Previous Version | Text Only | Print | Product List | Glossary On
Versions: 1 2 3 4 5 6 7 8 9 10 11 12
953
FTUS42 KCHS 191126
TAFCHS
TAF
KCHS 191126Z 1912/2012 30003KT P6SM FEW070 FEW120
     FM191400 32008KT P6SM FEW040 FEW200
     FM200100 34003KT P6SM SKC=

USA.gov is the U.S. government's official web portal to all federal, state and local government web resources and services.